sensor_id;sensor_type;location;lat;lon;timestamp;P1;durP1;ratioP1;P2;durP2;ratioP2
21243;SDS011;10780;50.942;4.028;2023-03-23T00:01:04;5.28;;;4.40;;
21243;SDS011;10780;50.942;4.028;2023-03-23T00:03:31;6.60;;;4.82;;
21243;SDS011;10780;50.942;4.028;2023-03-23T00:05:58;5.43;;;4.22;;
21243;SDS011;10780;50.942;4.028;2023-03-23T00:08:32;6.63;;;4.57;;
21243;SDS011;10780;50.942;4.028;2023-03-23T00:10:58;7.35;;;4.63;;
21243;SDS011;10780;50.942;4.028;2023-03-23T00:13:26;7.43;;;5.07;;
21243;SDS011;10780;50.942;4.028;2023-03-23T00:15:53;6.85;;;5.03;;
21243;SDS011;10780;50.942;4.028;2023-03-23T00:18:20;6.80;;;4.65;;
21243;SDS011;10780;50.942;4.028;2023-03-23T00:20:46;6.35;;;4.65;;
21243;SDS011;10780;50.942;4.028;2023-03-23T00:23:14;7.22;;;5.28;;
21243;SDS011;10780;50.942;4.028;2023-03-23T00:25:44;7.95;;;5.43;;
21243;SDS011;10780;50.942;4.028;2023-03-23T00:28:11;6.82;;;5.72;;
21243;SDS011;10780;50.942;4.028;2023-03-23T00:30:38;5.70;;;4.88;;
21243;SDS011;10780;50.942;4.028;2023-03-23T00:33:04;5.82;;;4.65;;
21243;SDS011;10780;50.942;4.028;2023-03-23T00:35:29;7.28;;;5.03;;
21243;SDS011;10780;50.942;4.028;2023-03-23T00:37:56;5.97;;;4.35;;
21243;SDS011;10780;50.942;4.028;2023-03-23T00:40:23;5.03;;;4.53;;
21243;SDS011;10780;50.942;4.028;2023-03-23T00:42:49;5.50;;;4.95;;
21243;SDS011;10780;50.942;4.028;2023-03-23T00:45:15;5.68;;;4.55;;
21243;SDS011;10780;50.942;4.028;2023-03-23T00:47:41;6.32;;;4.50;;
21243;SDS011;10780;50.942;4.028;2023-03-23T00:50:12;5.00;;;3.83;;
21243;SDS011;10780;50.942;4.028;2023-03-23T00:52:39;6.07;;;4.35;;
21243;SDS011;10780;50.942;4.028;2023-03-23T00:55:05;7.70;;;4.75;;
21243;SDS011;10780;50.942;4.028;2023-03-23T00:57:32;5.10;;;3.92;;
21243;SDS011;10780;50.942;4.028;2023-03-23T00:59:57;7.85;;;4.47;;
21243;SDS011;10780;50.942;4.028;2023-03-23T01:02:23;4.55;;;3.70;;
21243;SDS011;10780;50.942;4.028;2023-03-23T01:04:52;5.78;;;3.63;;
21243;SDS011;10780;50.942;4.028;2023-03-23T01:07:18;4.18;;;3.78;;
21243;SDS011;10780;50.942;4.028;2023-03-23T01:09:45;5.88;;;3.78;;
21243;SDS011;10780;50.942;4.028;2023-03-23T01:12:13;5.22;;;4.70;;
21243;SDS011;10780;50.942;4.028;2023-03-23T01:14:39;6.43;;;3.92;;
21243;SDS011;10780;50.942;4.028;2023-03-23T01:17:06;6.38;;;4.45;;
21243;SDS011;10780;50.942;4.028;2023-03-23T01:19:32;4.50;;;4.05;;
21243;SDS011;10780;50.942;4.028;2023-03-23T01:21:57;5.45;;;3.72;;
21243;SDS011;10780;50.942;4.028;2023-03-23T01:24:23;6.78;;;3.55;;
21243;SDS011;10780;50.942;4.028;2023-03-23T01:26:49;5.38;;;3.88;;
21243;SDS011;10780;50.942;4.028;2023-03-23T01:29:15;4.93;;;3.40;;
21243;SDS011;10780;50.942;4.028;2023-03-23T01:31:40;4.63;;;3.70;;
21243;SDS011;10780;50.942;4.028;2023-03-23T01:34:07;4.88;;;3.47;;
21243;SDS011;10780;50.942;4.028;2023-03-23T01:36:34;4.32;;;3.50;;
21243;SDS011;10780;50.942;4.028;2023-03-23T01:39:00;6.07;;;3.88;;
21243;SDS011;10780;50.942;4.028;2023-03-23T01:41:29;5.82;;;3.78;;
21243;SDS011;10780;50.942;4.028;2023-03-23T01:46:27;5.72;;;3.28;;
21243;SDS011;10780;50.942;4.028;2023-03-23T01:48:55;4.85;;;3.83;;
21243;SDS011;10780;50.942;4.028;2023-03-23T01:51:23;3.72;;;3.30;;
21243;SDS011;10780;50.942;4.028;2023-03-23T01:53:53;3.90;;;3.08;;
21243;SDS011;10780;50.942;4.028;2023-03-23T01:56:22;4.28;;;3.10;;
21243;SDS011;10780;50.942;4.028;2023-03-23T01:58:54;3.38;;;3.03;;
21243;SDS011;10780;50.942;4.028;2023-03-23T02:01:21;4.00;;;2.85;;
21243;SDS011;10780;50.942;4.028;2023-03-23T02:03:50;3.60;;;2.95;;
21243;SDS011;10780;50.942;4.028;2023-03-23T02:06:17;5.03;;;3.22;;
21243;SDS011;10780;50.942;4.028;2023-03-23T02:08:43;4.28;;;2.58;;
21243;SDS011;10780;50.942;4.028;2023-03-23T02:11:16;4.80;;;2.90;;
21243;SDS011;10780;50.942;4.028;2023-03-23T02:13:44;5.82;;;2.70;;
21243;SDS011;10780;50.942;4.028;2023-03-23T02:26:51;5.65;;;2.47;;
21243;SDS011;10780;50.942;4.028;2023-03-23T02:32:21;3.85;;;2.20;;
21243;SDS011;10780;50.942;4.028;2023-03-23T02:35:02;3.55;;;2.08;;
21243;SDS011;10780;50.942;4.028;2023-03-23T02:37:34;5.03;;;2.08;;
21243;SDS011;10780;50.942;4.028;2023-03-23T02:40:08;3.92;;;1.77;;
21243;SDS011;10780;50.942;4.028;2023-03-23T02:42:39;2.40;;;1.90;;
21243;SDS011;10780;50.942;4.028;2023-03-23T02:45:08;5.43;;;2.28;;
21243;SDS011;10780;50.942;4.028;2023-03-23T02:47:37;3.38;;;1.88;;
21243;SDS011;10780;50.942;4.028;2023-03-23T02:50:05;4.45;;;1.92;;
21243;SDS011;10780;50.942;4.028;2023-03-23T02:52:35;4.15;;;2.00;;
21243;SDS011;10780;50.942;4.028;2023-03-23T02:55:05;5.40;;;1.90;;
21243;SDS011;10780;50.942;4.028;2023-03-23T02:57:32;4.10;;;2.10;;
21243;SDS011;10780;50.942;4.028;2023-03-23T02:59:58;4.38;;;2.45;;
21243;SDS011;10780;50.942;4.028;2023-03-23T03:02:28;3.75;;;2.22;;
21243;SDS011;10780;50.942;4.028;2023-03-23T03:07:30;3.45;;;1.77;;
21243;SDS011;10780;50.942;4.028;2023-03-23T03:10:06;7.18;;;3.45;;
21243;SDS011;10780;50.942;4.028;2023-03-23T03:12:46;5.07;;;1.98;;
21243;SDS011;10780;50.942;4.028;2023-03-23T03:15:44;3.50;;;1.73;;
21243;SDS011;10780;50.942;4.028;2023-03-23T03:20:56;5.18;;;1.75;;
21243;SDS011;10780;50.942;4.028;2023-03-23T03:23:26;5.18;;;1.70;;
21243;SDS011;10780;50.942;4.028;2023-03-23T03:25:54;2.88;;;2.20;;
21243;SDS011;10780;50.942;4.028;2023-03-23T03:28:22;3.88;;;1.83;;
21243;SDS011;10780;50.942;4.028;2023-03-23T03:30:51;3.95;;;1.80;;
21243;SDS011;10780;50.942;4.028;2023-03-23T03:33:20;4.00;;;1.80;;
21243;SDS011;10780;50.942;4.028;2023-03-23T03:35:50;5.25;;;1.60;;
21243;SDS011;10780;50.942;4.028;2023-03-23T03:38:19;3.40;;;1.75;;
21243;SDS011;10780;50.942;4.028;2023-03-23T03:40:45;4.57;;;2.15;;
21243;SDS011;10780;50.942;4.028;2023-03-23T03:43:11;4.10;;;1.90;;
21243;SDS011;10780;50.942;4.028;2023-03-23T03:45:37;3.95;;;1.63;;
21243;SDS011;10780;50.942;4.028;2023-03-23T03:48:02;4.95;;;1.95;;
21243;SDS011;10780;50.942;4.028;2023-03-23T03:50:28;5.38;;;2.10;;
21243;SDS011;10780;50.942;4.028;2023-03-23T03:52:54;7.45;;;2.22;;
21243;SDS011;10780;50.942;4.028;2023-03-23T03:55:20;3.28;;;1.92;;
21243;SDS011;10780;50.942;4.028;2023-03-23T03:57:45;4.90;;;1.67;;
21243;SDS011;10780;50.942;4.028;2023-03-23T04:00:12;6.35;;;1.80;;
21243;SDS011;10780;50.942;4.028;2023-03-23T04:02:40;4.70;;;1.80;;
21243;SDS011;10780;50.942;4.028;2023-03-23T04:05:06;5.63;;;2.10;;
21243;SDS011;10780;50.942;4.028;2023-03-23T04:07:34;7.13;;;2.08;;
21243;SDS011;10780;50.942;4.028;2023-03-23T04:10:03;3.65;;;2.20;;
21243;SDS011;10780;50.942;4.028;2023-03-23T04:12:30;6.57;;;2.22;;
21243;SDS011;10780;50.942;4.028;2023-03-23T04:14:56;5.97;;;2.03;;
21243;SDS011;10780;50.942;4.028;2023-03-23T04:17:22;3.22;;;1.80;;
21243;SDS011;10780;50.942;4.028;2023-03-23T04:19:51;7.68;;;2.15;;
21243;SDS011;10780;50.942;4.028;2023-03-23T04:22:17;5.00;;;2.13;;
21243;SDS011;10780;50.942;4.028;2023-03-23T04:24:42;7.28;;;2.10;;
21243;SDS011;10780;50.942;4.028;2023-03-23T04:27:08;7.57;;;2.22;;
21243;SDS011;10780;50.942;4.028;2023-03-23T04:29:33;4.55;;;1.80;;
21243;SDS011;10780;50.942;4.028;2023-03-23T04:31:59;6.30;;;1.83;;
21243;SDS011;10780;50.942;4.028;2023-03-23T04:34:26;6.38;;;1.98;;
21243;SDS011;10780;50.942;4.028;2023-03-23T04:36:52;6.95;;;2.08;;
21243;SDS011;10780;50.942;4.028;2023-03-23T04:39:18;7.53;;;2.22;;
21243;SDS011;10780;50.942;4.028;2023-03-23T04:41:44;3.47;;;1.90;;
21243;SDS011;10780;50.942;4.028;2023-03-23T04:44:11;6.35;;;1.92;;
21243;SDS011;10780;50.942;4.028;2023-03-23T04:46:42;6.57;;;2.08;;
21243;SDS011;10780;50.942;4.028;2023-03-23T04:49:10;4.03;;;2.58;;
21243;SDS011;10780;50.942;4.028;2023-03-23T04:51:36;7.40;;;2.13;;
21243;SDS011;10780;50.942;4.028;2023-03-23T04:54:04;5.60;;;2.30;;
21243;SDS011;10780;50.942;4.028;2023-03-23T04:56:29;7.03;;;2.00;;
21243;SDS011;10780;50.942;4.028;2023-03-23T04:58:55;4.72;;;2.00;;
21243;SDS011;10780;50.942;4.028;2023-03-23T05:01:21;5.22;;;1.98;;
21243;SDS011;10780;50.942;4.028;2023-03-23T05:03:46;7.18;;;2.45;;
21243;SDS011;10780;50.942;4.028;2023-03-23T05:06:12;2.30;;;1.48;;
21243;SDS011;10780;50.942;4.028;2023-03-23T05:08:38;4.22;;;1.73;;
21243;SDS011;10780;50.942;4.028;2023-03-23T05:11:04;5.55;;;1.88;;
21243;SDS011;10780;50.942;4.028;2023-03-23T05:13:31;2.80;;;1.83;;
21243;SDS011;10780;50.942;4.028;2023-03-23T05:15:57;5.85;;;2.03;;
21243;SDS011;10780;50.942;4.028;2023-03-23T05:18:23;7.53;;;1.83;;
21243;SDS011;10780;50.942;4.028;2023-03-23T05:20:49;3.67;;;2.03;;
21243;SDS011;10780;50.942;4.028;2023-03-23T05:23:17;4.13;;;1.70;;
21243;SDS011;10780;50.942;4.028;2023-03-23T05:25:51;4.53;;;2.13;;
21243;SDS011;10780;50.942;4.028;2023-03-23T05:28:18;3.55;;;1.92;;
21243;SDS011;10780;50.942;4.028;2023-03-23T05:30:43;3.55;;;2.03;;
21243;SDS011;10780;50.942;4.028;2023-03-23T05:33:09;3.95;;;1.77;;
21243;SDS011;10780;50.942;4.028;2023-03-23T05:35:35;4.90;;;2.13;;
21243;SDS011;10780;50.942;4.028;2023-03-23T05:38:01;2.88;;;1.85;;
21243;SDS011;10780;50.942;4.028;2023-03-23T05:40:28;5.28;;;2.33;;
21243;SDS011;10780;50.942;4.028;2023-03-23T05:42:55;4.13;;;2.20;;
21243;SDS011;10780;50.942;4.028;2023-03-23T05:45:23;6.07;;;1.88;;
21243;SDS011;10780;50.942;4.028;2023-03-23T05:47:49;6.15;;;2.25;;
21243;SDS011;10780;50.942;4.028;2023-03-23T05:50:16;5.93;;;2.10;;
21243;SDS011;10780;50.942;4.028;2023-03-23T05:52:42;3.75;;;2.15;;
21243;SDS011;10780;50.942;4.028;2023-03-23T05:55:08;4.90;;;2.33;;
21243;SDS011;10780;50.942;4.028;2023-03-23T05:57:34;8.20;;;2.65;;
21243;SDS011;10780;50.942;4.028;2023-03-23T06:00:00;6.28;;;2.28;;
21243;SDS011;10780;50.942;4.028;2023-03-23T06:02:38;5.13;;;2.13;;
21243;SDS011;10780;50.942;4.028;2023-03-23T06:05:04;7.43;;;1.98;;
21243;SDS011;10780;50.942;4.028;2023-03-23T06:07:31;11.93;;;2.20;;
21243;SDS011;10780;50.942;4.028;2023-03-23T06:09:57;3.88;;;1.35;;
21243;SDS011;10780;50.942;4.028;2023-03-23T06:12:22;2.67;;;1.25;;
21243;SDS011;10780;50.942;4.028;2023-03-23T06:14:49;3.50;;;1.35;;
21243;SDS011;10780;50.942;4.028;2023-03-23T06:17:15;3.03;;;1.25;;
21243;SDS011;10780;50.942;4.028;2023-03-23T06:19:42;3.25;;;1.60;;
21243;SDS011;10780;50.942;4.028;2023-03-23T06:22:08;4.90;;;1.30;;
21243;SDS011;10780;50.942;4.028;2023-03-23T06:24:35;1.13;;;0.85;;
21243;SDS011;10780;50.942;4.028;2023-03-23T06:27:01;2.20;;;1.10;;
21243;SDS011;10780;50.942;4.028;2023-03-23T06:29:26;4.72;;;1.30;;
21243;SDS011;10780;50.942;4.028;2023-03-23T06:31:56;3.47;;;1.48;;
21243;SDS011;10780;50.942;4.028;2023-03-23T06:34:24;4.57;;;1.50;;
21243;SDS011;10780;50.942;4.028;2023-03-23T06:36:50;6.15;;;1.65;;
21243;SDS011;10780;50.942;4.028;2023-03-23T06:39:16;7.00;;;1.42;;
21243;SDS011;10780;50.942;4.028;2023-03-23T06:41:42;4.13;;;1.48;;
21243;SDS011;10780;50.942;4.028;2023-03-23T06:44:07;5.60;;;1.73;;
21243;SDS011;10780;50.942;4.028;2023-03-23T06:46:38;4.78;;;1.60;;
21243;SDS011;10780;50.942;4.028;2023-03-23T06:49:03;3.30;;;1.98;;
21243;SDS011;10780;50.942;4.028;2023-03-23T06:51:30;5.88;;;1.65;;
21243;SDS011;10780;50.942;4.028;2023-03-23T06:53:55;4.60;;;1.60;;
21243;SDS011;10780;50.942;4.028;2023-03-23T06:56:22;7.25;;;1.90;;
21243;SDS011;10780;50.942;4.028;2023-03-23T06:58:48;7.50;;;1.90;;
21243;SDS011;10780;50.942;4.028;2023-03-23T07:01:14;2.70;;;1.50;;
21243;SDS011;10780;50.942;4.028;2023-03-23T07:03:40;3.95;;;1.60;;
21243;SDS011;10780;50.942;4.028;2023-03-23T07:06:07;4.22;;;1.70;;
21243;SDS011;10780;50.942;4.028;2023-03-23T07:08:35;6.05;;;2.00;;
21243;SDS011;10780;50.942;4.028;2023-03-23T07:11:01;6.38;;;1.75;;
21243;SDS011;10780;50.942;4.028;2023-03-23T07:13:28;3.97;;;1.33;;
21243;SDS011;10780;50.942;4.028;2023-03-23T07:15:54;4.28;;;1.90;;
21243;SDS011;10780;50.942;4.028;2023-03-23T07:18:20;5.38;;;2.17;;
21243;SDS011;10780;50.942;4.028;2023-03-23T07:20:48;4.00;;;2.03;;
21243;SDS011;10780;50.942;4.028;2023-03-23T07:23:17;4.07;;;2.05;;
21243;SDS011;10780;50.942;4.028;2023-03-23T07:25:43;3.08;;;2.05;;
21243;SDS011;10780;50.942;4.028;2023-03-23T07:28:11;5.97;;;1.83;;
21243;SDS011;10780;50.942;4.028;2023-03-23T07:30:39;6.28;;;2.10;;
21243;SDS011;10780;50.942;4.028;2023-03-23T07:33:08;2.67;;;1.70;;
21243;SDS011;10780;50.942;4.028;2023-03-23T07:35:34;3.75;;;1.65;;
21243;SDS011;10780;50.942;4.028;2023-03-23T07:38:01;2.10;;;1.65;;
21243;SDS011;10780;50.942;4.028;2023-03-23T07:40:27;4.28;;;1.77;;
21243;SDS011;10780;50.942;4.028;2023-03-23T07:42:55;5.97;;;1.90;;
21243;SDS011;10780;50.942;4.028;2023-03-23T07:45:23;3.05;;;1.83;;
21243;SDS011;10780;50.942;4.028;2023-03-23T07:47:49;3.95;;;1.73;;
21243;SDS011;10780;50.942;4.028;2023-03-23T07:50:16;4.32;;;1.88;;
21243;SDS011;10780;50.942;4.028;2023-03-23T07:52:42;3.33;;;1.80;;
21243;SDS011;10780;50.942;4.028;2023-03-23T07:55:09;3.85;;;2.08;;
21243;SDS011;10780;50.942;4.028;2023-03-23T07:57:42;3.42;;;1.70;;
21243;SDS011;10780;50.942;4.028;2023-03-23T08:00:09;4.78;;;2.13;;
21243;SDS011;10780;50.942;4.028;2023-03-23T08:02:39;5.80;;;1.90;;
21243;SDS011;10780;50.942;4.028;2023-03-23T08:05:06;5.47;;;1.95;;
21243;SDS011;10780;50.942;4.028;2023-03-23T08:07:33;4.30;;;1.80;;
21243;SDS011;10780;50.942;4.028;2023-03-23T08:10:00;2.60;;;1.60;;
21243;SDS011;10780;50.942;4.028;2023-03-23T08:12:26;5.22;;;1.90;;
21243;SDS011;10780;50.942;4.028;2023-03-23T08:14:52;5.30;;;2.00;;
21243;SDS011;10780;50.942;4.028;2023-03-23T08:17:19;3.95;;;2.10;;
21243;SDS011;10780;50.942;4.028;2023-03-23T08:19:45;3.70;;;1.80;;
21243;SDS011;10780;50.942;4.028;2023-03-23T08:22:11;5.25;;;2.20;;
21243;SDS011;10780;50.942;4.028;2023-03-23T08:24:40;3.83;;;1.85;;
21243;SDS011;10780;50.942;4.028;2023-03-23T08:27:05;2.88;;;1.48;;
21243;SDS011;10780;50.942;4.028;2023-03-23T08:29:31;3.75;;;2.00;;
21243;SDS011;10780;50.942;4.028;2023-03-23T08:31:58;6.22;;;2.63;;
21243;SDS011;10780;50.942;4.028;2023-03-23T08:34:24;4.25;;;1.80;;
21243;SDS011;10780;50.942;4.028;2023-03-23T08:36:50;3.78;;;1.60;;
21243;SDS011;10780;50.942;4.028;2023-03-23T08:39:16;6.65;;;2.05;;
21243;SDS011;10780;50.942;4.028;2023-03-23T08:41:43;3.53;;;1.65;;
21243;SDS011;10780;50.942;4.028;2023-03-23T08:44:09;6.70;;;2.22;;
21243;SDS011;10780;50.942;4.028;2023-03-23T08:46:35;8.02;;;2.78;;
21243;SDS011;10780;50.942;4.028;2023-03-23T08:49:01;3.00;;;1.60;;
21243;SDS011;10780;50.942;4.028;2023-03-23T08:51:26;4.05;;;1.95;;
21243;SDS011;10780;50.942;4.028;2023-03-23T08:53:52;6.25;;;1.70;;
21243;SDS011;10780;50.942;4.028;2023-03-23T08:56:19;2.58;;;1.73;;
21243;SDS011;10780;50.942;4.028;2023-03-23T08:58:45;3.72;;;1.90;;
21243;SDS011;10780;50.942;4.028;2023-03-23T09:01:10;4.65;;;2.42;;
21243;SDS011;10780;50.942;4.028;2023-03-23T09:03:36;2.88;;;1.75;;
21243;SDS011;10780;50.942;4.028;2023-03-23T09:06:03;3.70;;;1.90;;
21243;SDS011;10780;50.942;4.028;2023-03-23T09:08:30;5.55;;;2.40;;
21243;SDS011;10780;50.942;4.028;2023-03-23T09:11:00;4.25;;;2.15;;
21243;SDS011;10780;50.942;4.028;2023-03-23T09:23:40;3.05;;;1.80;;
21243;SDS011;10780;50.942;4.028;2023-03-23T09:26:09;3.38;;;2.30;;
21243;SDS011;10780;50.942;4.028;2023-03-23T09:28:35;5.45;;;2.75;;
21243;SDS011;10780;50.942;4.028;2023-03-23T09:31:01;4.72;;;2.75;;
21243;SDS011;10780;50.942;4.028;2023-03-23T09:33:27;3.72;;;2.17;;
21243;SDS011;10780;50.942;4.028;2023-03-23T09:35:57;4.15;;;2.78;;
21243;SDS011;10780;50.942;4.028;2023-03-23T09:38:23;3.95;;;2.20;;
21243;SDS011;10780;50.942;4.028;2023-03-23T09:41:33;4.07;;;2.20;;
21243;SDS011;10780;50.942;4.028;2023-03-23T09:44:10;3.30;;;2.38;;
21243;SDS011;10780;50.942;4.028;2023-03-23T09:46:45;3.88;;;2.33;;
21243;SDS011;10780;50.942;4.028;2023-03-23T09:49:33;2.85;;;1.80;;
21243;SDS011;10780;50.942;4.028;2023-03-23T09:52:05;2.85;;;2.10;;
21243;SDS011;10780;50.942;4.028;2023-03-23T09:54:37;4.30;;;2.00;;
21243;SDS011;10780;50.942;4.028;2023-03-23T09:57:10;4.20;;;2.20;;
21243;SDS011;10780;50.942;4.028;2023-03-23T09:59:52;2.83;;;2.10;;
21243;SDS011;10780;50.942;4.028;2023-03-23T10:02:31;4.32;;;2.15;;
21243;SDS011;10780;50.942;4.028;2023-03-23T10:05:52;5.30;;;2.40;;
21243;SDS011;10780;50.942;4.028;2023-03-23T10:07:57;4.63;;;2.40;;
21243;SDS011;10780;50.942;4.028;2023-03-23T10:10:29;5.68;;;2.85;;
21243;SDS011;10780;50.942;4.028;2023-03-23T10:13:04;3.72;;;2.58;;
21243;SDS011;10780;50.942;4.028;2023-03-23T10:15:51;5.15;;;2.50;;
21243;SDS011;10780;50.942;4.028;2023-03-23T10:18:40;4.68;;;3.03;;
21243;SDS011;10780;50.942;4.028;2023-03-23T10:21:11;3.65;;;2.90;;
21243;SDS011;10780;50.942;4.028;2023-03-23T10:28:54;4.78;;;2.50;;
21243;SDS011;10780;50.942;4.028;2023-03-23T10:31:34;4.25;;;3.58;;
21243;SDS011;10780;50.942;4.028;2023-03-23T10:34:04;4.85;;;2.78;;
21243;SDS011;10780;50.942;4.028;2023-03-23T10:39:52;4.70;;;2.33;;
21243;SDS011;10780;50.942;4.028;2023-03-23T10:42:24;5.63;;;2.53;;
21243;SDS011;10780;50.942;4.028;2023-03-23T10:44:52;3.90;;;2.45;;
21243;SDS011;10780;50.942;4.028;2023-03-23T10:47:19;5.30;;;2.53;;
21243;SDS011;10780;50.942;4.028;2023-03-23T10:49:59;6.38;;;2.97;;
21243;SDS011;10780;50.942;4.028;2023-03-23T10:52:37;3.67;;;3.05;;
21243;SDS011;10780;50.942;4.028;2023-03-23T10:55:13;6.75;;;3.60;;
21243;SDS011;10780;50.942;4.028;2023-03-23T10:57:41;6.07;;;3.72;;
21243;SDS011;10780;50.942;4.028;2023-03-23T11:00:23;9.48;;;4.25;;
21243;SDS011;10780;50.942;4.028;2023-03-23T11:05:41;10.40;;;3.90;;
21243;SDS011;10780;50.942;4.028;2023-03-23T11:08:27;7.25;;;3.08;;
21243;SDS011;10780;50.942;4.028;2023-03-23T11:14:18;8.07;;;3.45;;
21243;SDS011;10780;50.942;4.028;2023-03-23T11:16:53;7.63;;;3.40;;
21243;SDS011;10780;50.942;4.028;2023-03-23T11:19:22;11.43;;;3.90;;
21243;SDS011;10780;50.942;4.028;2023-03-23T11:24:31;11.35;;;4.25;;
21243;SDS011;10780;50.942;4.028;2023-03-23T11:26:59;9.27;;;3.63;;
21243;SDS011;10780;50.942;4.028;2023-03-23T11:29:26;8.93;;;3.38;;
21243;SDS011;10780;50.942;4.028;2023-03-23T11:32:14;6.63;;;3.67;;
21243;SDS011;10780;50.942;4.028;2023-03-23T11:34:44;7.60;;;3.38;;
21243;SDS011;10780;50.942;4.028;2023-03-23T11:37:29;9.35;;;3.65;;
21243;SDS011;10780;50.942;4.028;2023-03-23T11:40:01;9.52;;;3.95;;
21243;SDS011;10780;50.942;4.028;2023-03-23T11:43:01;9.75;;;3.47;;
21243;SDS011;10780;50.942;4.028;2023-03-23T11:45:35;9.55;;;3.88;;
21243;SDS011;10780;50.942;4.028;2023-03-23T11:51:12;6.65;;;3.67;;
21243;SDS011;10780;50.942;4.028;2023-03-23T11:53:55;8.15;;;2.90;;
21243;SDS011;10780;50.942;4.028;2023-03-23T11:56:30;6.10;;;2.95;;
21243;SDS011;10780;50.942;4.028;2023-03-23T11:59:02;8.35;;;2.83;;
21243;SDS011;10780;50.942;4.028;2023-03-23T12:01:38;7.45;;;2.90;;
21243;SDS011;10780;50.942;4.028;2023-03-23T12:04:16;6.00;;;2.50;;
21243;SDS011;10780;50.942;4.028;2023-03-23T12:17:31;7.13;;;2.60;;
21243;SDS011;10780;50.942;4.028;2023-03-23T12:20:16;7.50;;;2.55;;
21243;SDS011;10780;50.942;4.028;2023-03-23T12:23:06;7.55;;;3.55;;
21243;SDS011;10780;50.942;4.028;2023-03-23T12:31:17;6.15;;;2.45;;
21243;SDS011;10780;50.942;4.028;2023-03-23T12:37:15;13.07;;;3.20;;
21243;SDS011;10780;50.942;4.028;2023-03-23T12:42:47;8.25;;;2.50;;
21243;SDS011;10780;50.942;4.028;2023-03-23T12:48:24;9.10;;;2.92;;
21243;SDS011;10780;50.942;4.028;2023-03-23T12:51:03;6.90;;;2.50;;
21243;SDS011;10780;50.942;4.028;2023-03-23T12:54:03;16.48;;;2.83;;
21243;SDS011;10780;50.942;4.028;2023-03-23T12:56:37;6.53;;;2.67;;
21243;SDS011;10780;50.942;4.028;2023-03-23T12:59:12;4.75;;;2.38;;
21243;SDS011;10780;50.942;4.028;2023-03-23T13:02:30;10.98;;;2.63;;
21243;SDS011;10780;50.942;4.028;2023-03-23T13:04:49;7.25;;;2.70;;
21243;SDS011;10780;50.942;4.028;2023-03-23T13:07:23;8.20;;;2.70;;
21243;SDS011;10780;50.942;4.028;2023-03-23T13:09:55;8.15;;;2.60;;
21243;SDS011;10780;50.942;4.028;2023-03-23T13:12:30;9.07;;;2.40;;
21243;SDS011;10780;50.942;4.028;2023-03-23T13:15:18;7.65;;;2.88;;
21243;SDS011;10780;50.942;4.028;2023-03-23T13:21:05;6.82;;;3.10;;
21243;SDS011;10780;50.942;4.028;2023-03-23T13:23:42;8.73;;;2.75;;
21243;SDS011;10780;50.942;4.028;2023-03-23T13:26:17;6.75;;;2.47;;
21243;SDS011;10780;50.942;4.028;2023-03-23T13:31:17;7.72;;;3.03;;
21243;SDS011;10780;50.942;4.028;2023-03-23T13:33:50;13.13;;;3.17;;
21243;SDS011;10780;50.942;4.028;2023-03-23T13:36:26;12.35;;;3.58;;
21243;SDS011;10780;50.942;4.028;2023-03-23T13:39:02;11.18;;;3.15;;
21243;SDS011;10780;50.942;4.028;2023-03-23T13:41:32;9.90;;;2.88;;
21243;SDS011;10780;50.942;4.028;2023-03-23T13:44:14;8.75;;;2.63;;
21243;SDS011;10780;50.942;4.028;2023-03-23T13:46:53;6.15;;;2.45;;
21243;SDS011;10780;50.942;4.028;2023-03-23T13:49:20;5.97;;;2.83;;
21243;SDS011;10780;50.942;4.028;2023-03-23T13:51:59;8.52;;;2.55;;
21243;SDS011;10780;50.942;4.028;2023-03-23T13:54:45;8.82;;;2.97;;
21243;SDS011;10780;50.942;4.028;2023-03-23T14:00:11;11.55;;;2.83;;
21243;SDS011;10780;50.942;4.028;2023-03-23T14:02:57;8.80;;;3.15;;
21243;SDS011;10780;50.942;4.028;2023-03-23T14:10:57;7.47;;;2.55;;
21243;SDS011;10780;50.942;4.028;2023-03-23T14:13:51;9.98;;;3.67;;
21243;SDS011;10780;50.942;4.028;2023-03-23T14:16:24;7.82;;;2.67;;
21243;SDS011;10780;50.942;4.028;2023-03-23T14:19:26;10.13;;;3.05;;
21243;SDS011;10780;50.942;4.028;2023-03-23T14:22:00;5.43;;;2.20;;
21243;SDS011;10780;50.942;4.028;2023-03-23T14:24:31;5.57;;;2.30;;
21243;SDS011;10780;50.942;4.028;2023-03-23T14:27:07;5.00;;;2.40;;
21243;SDS011;10780;50.942;4.028;2023-03-23T14:30:00;8.00;;;2.50;;
21243;SDS011;10780;50.942;4.028;2023-03-23T14:32:28;8.13;;;2.95;;
21243;SDS011;10780;50.942;4.028;2023-03-23T14:34:57;6.65;;;3.13;;
21243;SDS011;10780;50.942;4.028;2023-03-23T14:37:24;8.32;;;3.33;;
21243;SDS011;10780;50.942;4.028;2023-03-23T14:39:52;7.28;;;3.60;;
21243;SDS011;10780;50.942;4.028;2023-03-23T14:42:21;10.18;;;2.88;;
21243;SDS011;10780;50.942;4.028;2023-03-23T14:44:55;8.07;;;3.15;;
21243;SDS011;10780;50.942;4.028;2023-03-23T14:47:23;9.93;;;2.72;;
21243;SDS011;10780;50.942;4.028;2023-03-23T14:49:56;8.35;;;2.72;;
21243;SDS011;10780;50.942;4.028;2023-03-23T14:52:33;8.75;;;2.83;;
21243;SDS011;10780;50.942;4.028;2023-03-23T14:55:14;8.95;;;2.55;;
21243;SDS011;10780;50.942;4.028;2023-03-23T14:57:44;9.93;;;3.13;;
21243;SDS011;10780;50.942;4.028;2023-03-23T16:41:52;11.95;;;2.50;;
21243;SDS011;10780;50.942;4.028;2023-03-23T16:44:18;8.23;;;2.90;;
21243;SDS011;10780;50.942;4.028;2023-03-23T16:46:44;7.50;;;2.53;;
21243;SDS011;10780;50.942;4.028;2023-03-23T16:49:09;8.90;;;2.75;;
21243;SDS011;10780;50.942;4.028;2023-03-23T16:51:35;10.32;;;2.65;;
21243;SDS011;10780;50.942;4.028;2023-03-23T16:54:01;11.85;;;3.08;;
21243;SDS011;10780;50.942;4.028;2023-03-23T16:56:26;7.32;;;2.58;;
21243;SDS011;10780;50.942;4.028;2023-03-23T16:58:52;9.40;;;2.75;;
21243;SDS011;10780;50.942;4.028;2023-03-23T17:01:18;4.47;;;2.55;;
21243;SDS011;10780;50.942;4.028;2023-03-23T17:03:43;7.13;;;2.45;;
21243;SDS011;10780;50.942;4.028;2023-03-23T17:06:09;6.32;;;2.65;;
21243;SDS011;10780;50.942;4.028;2023-03-23T17:08:35;11.20;;;3.55;;
21243;SDS011;10780;50.942;4.028;2023-03-23T17:11:00;11.30;;;2.97;;
21243;SDS011;10780;50.942;4.028;2023-03-23T17:13:26;6.95;;;2.72;;
21243;SDS011;10780;50.942;4.028;2023-03-23T17:15:53;9.45;;;3.28;;
21243;SDS011;10780;50.942;4.028;2023-03-23T17:18:20;10.55;;;3.10;;
21243;SDS011;10780;50.942;4.028;2023-03-23T17:20:47;10.32;;;3.22;;
21243;SDS011;10780;50.942;4.028;2023-03-23T17:23:13;6.80;;;3.40;;
21243;SDS011;10780;50.942;4.028;2023-03-23T17:25:42;11.02;;;3.70;;
21243;SDS011;10780;50.942;4.028;2023-03-23T17:28:09;15.73;;;3.63;;
21243;SDS011;10780;50.942;4.028;2023-03-23T17:30:35;6.75;;;2.90;;
21243;SDS011;10780;50.942;4.028;2023-03-23T17:33:04;8.57;;;3.08;;
21243;SDS011;10780;50.942;4.028;2023-03-23T17:35:30;10.60;;;3.83;;
21243;SDS011;10780;50.942;4.028;2023-03-23T17:37:56;12.73;;;3.15;;
21243;SDS011;10780;50.942;4.028;2023-03-23T17:40:22;8.90;;;3.45;;
21243;SDS011;10780;50.942;4.028;2023-03-23T17:42:47;7.18;;;3.17;;
21243;SDS011;10780;50.942;4.028;2023-03-23T17:45:13;6.88;;;3.10;;
21243;SDS011;10780;50.942;4.028;2023-03-23T17:47:39;12.30;;;3.88;;
21243;SDS011;10780;50.942;4.028;2023-03-23T17:50:05;9.63;;;3.40;;
21243;SDS011;10780;50.942;4.028;2023-03-23T17:52:31;10.13;;;3.17;;
21243;SDS011;10780;50.942;4.028;2023-03-23T17:54:57;12.60;;;3.33;;
21243;SDS011;10780;50.942;4.028;2023-03-23T17:57:23;14.07;;;3.70;;
21243;SDS011;10780;50.942;4.028;2023-03-23T17:59:48;12.27;;;3.53;;
21243;SDS011;10780;50.942;4.028;2023-03-23T18:02:14;14.43;;;3.92;;
21243;SDS011;10780;50.942;4.028;2023-03-23T18:04:42;11.85;;;3.78;;
21243;SDS011;10780;50.942;4.028;2023-03-23T18:07:09;11.75;;;4.38;;
21243;SDS011;10780;50.942;4.028;2023-03-23T18:09:35;11.00;;;4.10;;
21243;SDS011;10780;50.942;4.028;2023-03-23T18:12:00;9.90;;;3.88;;
21243;SDS011;10780;50.942;4.028;2023-03-23T18:14:26;13.68;;;4.60;;